Time;durP1;ratioP1;P1;durP2;ratioP2;P2;SDS_P1;SDS_P2;PMS_P1;PMS_P2;Temp;Humidity;BMP_temperature;BMP_pressure;BME280_temperature;BME280_humidity;BME280_pressure;Samples;Min_cycle;Max_cycle;Signal;HPM_P1;HPM_P2
2020/12/02 00:00:41;;;;;;;287.70;160.35;;;17.20;65.80;;;;;;5053163;28;20060;-54
2020/12/02 00:03:27;;;;;;;251.65;143.43;;;17.10;65.80;;;;;;5052539;28;20044;-59
2020/12/02 00:05:55;;;;;;;241.25;145.75;;;17.00;63.30;;;;;;5053424;28;20029;-54
2020/12/02 00:08:47;;;;;;;231.65;138.10;;;17.00;62.60;;;;;;5053899;28;20115;-52
2020/12/02 00:11:14;;;;;;;197.10;113.55;;;16.90;60.90;;;;;;5052618;28;20025;-57
2020/12/02 00:13:44;;;;;;;205.85;119.70;;;16.90;61.50;;;;;;5052060;28;20056;-50
2020/12/02 00:16:13;;;;;;;201.55;117.47;;;16.80;61.50;;;;;;5052270;28;20031;-53
2020/12/02 00:18:40;;;;;;;203.50;109.55;;;16.90;61.70;;;;;;5051151;28;20024;-53
2020/12/02 00:21:07;;;;;;;197.73;115.38;;;16.80;61.60;;;;;;5052625;28;20550;-57
2020/12/02 00:23:33;;;;;;;194.55;110.45;;;16.90;62.60;;;;;;5052600;28;20429;-57
2020/12/02 00:25:59;;;;;;;196.93;111.65;;;16.90;62.20;;;;;;5053064;28;20104;-51
2020/12/02 00:28:25;;;;;;;197.02;105.57;;;16.90;62.10;;;;;;5053217;28;20044;-53
2020/12/02 00:30:51;;;;;;;190.88;105.28;;;17.00;62.30;;;;;;5054174;28;20064;-50
2020/12/02 00:33:22;;;;;;;181.25;105.50;;;17.00;62.40;;;;;;5053890;28;20025;-53
2020/12/02 00:35:48;;;;;;;188.02;105.40;;;17.00;62.20;;;;;;5050556;28;20071;-50
2020/12/02 00:38:15;;;;;;;196.45;104.88;;;17.00;62.30;;;;;;5034042;28;20044;-52
2020/12/02 00:40:45;;;;;;;183.23;101.55;;;17.00;62.10;;;;;;5034060;28;20030;-54
2020/12/02 00:43:23;;;;;;;179.30;101.05;;;17.10;62.50;;;;;;5033709;28;20033;-50
2020/12/02 00:45:51;;;;;;;176.60;97.72;;;17.00;62.90;;;;;;5033062;28;20038;-50
2020/12/02 00:48:20;;;;;;;177.50;98.72;;;17.00;62.80;;;;;;5031953;28;20029;-54
2020/12/02 00:50:46;;;;;;;175.25;97.82;;;17.00;62.80;;;;;;5032852;28;20030;-50
2020/12/02 00:53:15;;;;;;;174.43;96.90;;;17.00;62.90;;;;;;5033090;28;20385;-51
2020/12/02 00:55:44;;;;;;;167.27;95.97;;;17.10;62.60;;;;;;5033469;28;20017;-50
2020/12/02 00:58:15;;;;;;;165.25;94.18;;;17.20;62.30;;;;;;5033469;28;20492;-50
2020/12/02 01:00:42;;;;;;;161.27;88.80;;;17.20;62.20;;;;;;5033813;28;20052;-50
2020/12/02 01:03:21;;;;;;;156.60;89.53;;;17.40;62.00;;;;;;5033761;28;20132;-50
2020/12/02 01:05:47;;;;;;;152.80;86.50;;;17.40;61.90;;;;;;5033933;28;20410;-49
2020/12/02 01:08:36;;;;;;;162.23;89.70;;;17.40;61.90;;;;;;5033446;28;20373;-50
2020/12/02 01:11:23;;;;;;;156.80;87.40;;;17.50;61.80;;;;;;5033974;28;20416;-50
2020/12/02 01:13:57;;;;;;;146.43;82.75;;;17.40;61.80;;;;;;5033782;28;20437;-50
2020/12/02 01:16:28;;;;;;;143.95;83.90;;;17.40;61.80;;;;;;5033543;28;20029;-52
2020/12/02 01:18:56;;;;;;;140.93;81.05;;;17.40;61.90;;;;;;5033496;28;20033;-52
2020/12/02 01:21:50;;;;;;;139.50;78.45;;;17.40;61.90;;;;;;5033765;28;20499;-51
2020/12/02 01:24:21;;;;;;;134.45;78.13;;;17.40;61.90;;;;;;5033286;28;20125;-51
2020/12/02 01:27:14;;;;;;;139.38;77.10;;;17.40;62.20;;;;;;5033357;28;20108;-51
2020/12/02 01:29:40;;;;;;;139.98;76.63;;;17.50;61.60;;;;;;5033176;28;20049;-50
2020/12/02 01:32:06;;;;;;;133.95;74.70;;;17.60;61.10;;;;;;5033622;28;20499;-53
2020/12/02 01:34:32;;;;;;;135.45;76.38;;;17.70;61.10;;;;;;5033208;28;20115;-51
2020/12/02 01:37:07;;;;;;;130.88;73.53;;;17.60;60.90;;;;;;5033072;28;20057;-51
2020/12/02 01:39:43;;;;;;;132.40;73.85;;;17.70;60.90;;;;;;5034712;28;20036;-51
2020/12/02 01:42:12;;;;;;;126.75;69.90;;;17.60;61.40;;;;;;5037751;28;20037;-51
2020/12/02 01:44:39;;;;;;;124.90;68.60;;;17.50;61.40;;;;;;5037626;28;20474;-51
2020/12/02 01:47:38;;;;;;;115.55;70.65;;;17.50;61.70;;;;;;5036984;28;20374;-50
2020/12/02 01:50:15;;;;;;;122.97;68.82;;;17.40;61.70;;;;;;5036005;28;20394;-50
2020/12/02 01:53:01;;;;;;;114.07;68.30;;;17.40;61.90;;;;;;5036197;28;20398;-50
2020/12/02 01:55:33;;;;;;;113.78;65.20;;;17.40;61.90;;;;;;5037185;28;20025;-50
2020/12/02 01:58:07;;;;;;;109.75;64.22;;;17.40;61.80;;;;;;5037001;28;20037;-51
2020/12/02 02:00:36;;;;;;;118.65;66.60;;;17.30;61.70;;;;;;5037344;28;20033;-51
2020/12/02 02:03:05;;;;;;;115.20;66.20;;;17.30;61.70;;;;;;5036976;28;20049;-50
2020/12/02 02:05:49;;;;;;;109.68;61.78;;;17.30;61.70;;;;;;5036869;28;20490;-51
2020/12/02 02:08:17;;;;;;;114.32;63.55;;;17.30;61.80;;;;;;5036793;28;20501;-50
2020/12/02 02:10:46;;;;;;;105.72;61.88;;;17.30;61.70;;;;;;5036565;28;20030;-50
2020/12/02 02:13:14;;;;;;;104.63;61.33;;;17.20;61.70;;;;;;5037130;28;20427;-51
2020/12/02 02:15:51;;;;;;;104.10;59.55;;;17.20;61.80;;;;;;5036684;28;20044;-51
2020/12/02 02:18:24;;;;;;;103.45;60.72;;;17.20;61.80;;;;;;5036467;28;20030;-51
2020/12/02 02:20:53;;;;;;;99.13;56.13;;;17.20;61.90;;;;;;5036608;28;20033;-51
2020/12/02 02:23:19;;;;;;;99.13;58.33;;;17.10;61.90;;;;;;5036528;28;20029;-50
2020/12/02 02:26:09;;;;;;;100.32;56.42;;;17.10;62.00;;;;;;5036433;28;20029;-50
2020/12/02 02:28:40;;;;;;;99.28;55.95;;;17.10;62.10;;;;;;5036323;28;20584;-50
2020/12/02 02:31:11;;;;;;;103.45;57.00;;;17.10;62.10;;;;;;5036324;28;20034;-51
2020/12/02 02:33:38;;;;;;;87.15;52.17;;;17.10;62.10;;;;;;5036812;28;20033;-50
2020/12/02 02:36:03;;;;;;;94.20;54.03;;;17.10;62.50;;;;;;5036078;28;20053;-52
2020/12/02 02:38:29;;;;;;;89.35;53.40;;;17.00;62.50;;;;;;5036166;28;20474;-50
2020/12/02 02:40:55;;;;;;;91.30;50.25;;;17.10;62.60;;;;;;5036270;28;20030;-50
2020/12/02 02:43:20;;;;;;;92.57;49.45;;;17.00;62.50;;;;;;5036112;28;20033;-50
2020/12/02 02:45:46;;;;;;;91.60;50.55;;;17.10;62.40;;;;;;5035075;28;20029;-50
2020/12/02 02:48:12;;;;;;;90.15;49.70;;;17.10;62.20;;;;;;5054949;28;20521;-51
2020/12/02 02:50:37;;;;;;;87.30;50.70;;;17.10;62.60;;;;;;5053772;28;20465;-51
2020/12/02 02:53:17;;;;;;;86.13;48.22;;;17.10;62.10;;;;;;5054843;28;20029;-51
2020/12/02 02:55:43;;;;;;;80.67;47.63;;;17.10;62.00;;;;;;5055644;28;20032;-50
2020/12/02 02:58:09;;;;;;;82.38;47.15;;;17.00;62.00;;;;;;5055817;28;20028;-50
2020/12/02 03:00:35;;;;;;;72.82;44.65;;;17.00;62.20;;;;;;5055821;28;20354;-50
2020/12/02 03:03:01;;;;;;;81.70;44.70;;;16.90;62.30;;;;;;5055867;28;20041;-52
2020/12/02 03:05:29;;;;;;;77.72;44.90;;;16.90;62.60;;;;;;5055706;28;20074;-50
2020/12/02 03:07:58;;;;;;;70.18;43.08;;;16.90;62.70;;;;;;5055568;28;20025;-51
2020/12/02 03:10:28;;;;;;;72.40;41.53;;;16.90;62.40;;;;;;5055586;28;20028;-50
2020/12/02 03:12:56;;;;;;;75.10;42.92;;;17.00;62.30;;;;;;5055489;28;20522;-50
2020/12/02 03:15:22;;;;;;;76.88;41.92;;;17.10;62.10;;;;;;5055265;28;20385;-50
2020/12/02 03:17:47;;;;;;;69.38;39.13;;;17.20;61.90;;;;;;5055358;28;20021;-50
2020/12/02 03:20:37;;;;;;;72.45;41.33;;;17.30;61.60;;;;;;5055363;28;20028;-51
2020/12/02 03:23:03;;;;;;;70.35;40.10;;;17.30;61.30;;;;;;5055405;28;20032;-51
2020/12/02 03:25:33;;;;;;;71.50;39.47;;;17.40;61.10;;;;;;5056049;28;20079;-50
2020/12/02 03:28:00;;;;;;;67.85;37.95;;;17.50;60.80;;;;;;5055293;28;20029;-50
2020/12/02 03:30:26;;;;;;;68.72;38.38;;;17.50;60.80;;;;;;5055184;28;20373;-50
2020/12/02 03:32:52;;;;;;;72.88;38.45;;;17.50;60.60;;;;;;5055130;28;20020;-50
2020/12/02 03:35:17;;;;;;;62.67;36.63;;;17.60;60.70;;;;;;5055352;28;20373;-50
2020/12/02 03:37:43;;;;;;;62.72;36.28;;;17.50;60.90;;;;;;5055007;28;20047;-50
2020/12/02 03:40:10;;;;;;;62.72;36.45;;;17.70;60.60;;;;;;5054859;28;20520;-51
2020/12/02 03:42:36;;;;;;;61.08;34.80;;;17.90;59.90;;;;;;5055111;28;20078;-50
2020/12/02 03:45:08;;;;;;;61.78;34.55;;;17.90;59.80;;;;;;5055114;28;20377;-51
2020/12/02 03:47:33;;;;;;;64.70;35.30;;;18.00;59.50;;;;;;5055222;28;20029;-51
2020/12/02 03:49:59;;;;;;;61.28;34.55;;;18.00;59.40;;;;;;5054875;28;20055;-50
2020/12/02 03:52:25;;;;;;;56.25;32.08;;;17.90;59.90;;;;;;5054728;28;20079;-50
2020/12/02 03:54:50;;;;;;;53.60;33.58;;;17.70;60.20;;;;;;5054819;28;20036;-50
2020/12/02 03:57:16;;;;;;;55.22;32.85;;;17.60;60.40;;;;;;5055070;28;20021;-50
2020/12/02 03:59:42;;;;;;;49.95;29.15;;;17.60;60.70;;;;;;5054599;28;20423;-50
2020/12/02 04:02:07;;;;;;;58.33;33.92;;;17.50;60.70;;;;;;5054091;28;20045;-51
2020/12/02 04:04:33;;;;;;;59.10;33.03;;;17.50;60.80;;;;;;5053891;28;20408;-51
2020/12/02 04:06:59;;;;;;;51.38;30.55;;;17.50;61.00;;;;;;5054225;28;20122;-50
2020/12/02 04:09:24;;;;;;;58.85;30.92;;;17.40;60.90;;;;;;5054919;28;20467;-50
2020/12/02 04:11:50;;;;;;;51.83;29.58;;;17.40;61.10;;;;;;5054791;28;20475;-50
2020/12/02 04:14:15;;;;;;;45.35;28.42;;;17.30;61.20;;;;;;5054198;28;20028;-50
2020/12/02 04:16:41;;;;;;;52.30;28.85;;;17.30;61.40;;;;;;5054419;28;20090;-50
2020/12/02 04:19:07;;;;;;;49.70;28.38;;;17.30;61.50;;;;;;5054414;28;20028;-50
2020/12/02 04:21:32;;;;;;;46.58;29.08;;;17.30;61.30;;;;;;5054713;28;20071;-50
2020/12/02 04:23:58;;;;;;;50.13;28.80;;;17.40;61.10;;;;;;5054764;28;20025;-50
2020/12/02 04:26:26;;;;;;;51.05;28.52;;;17.40;60.90;;;;;;5054309;28;20029;-50
2020/12/02 04:28:51;;;;;;;48.35;28.85;;;17.30;60.90;;;;;;5054048;28;20362;-50
2020/12/02 04:31:18;;;;;;;48.05;28.27;;;17.30;60.90;;;;;;5053808;28;20047;-50
2020/12/02 04:33:45;;;;;;;48.13;25.70;;;17.30;61.00;;;;;;5054012;28;20029;-50
2020/12/02 04:36:12;;;;;;;45.70;26.63;;;17.30;61.00;;;;;;5054498;28;20355;-50
2020/12/02 04:38:38;;;;;;;42.25;25.40;;;17.20;61.10;;;;;;5053788;28;20532;-50
2020/12/02 04:41:16;;;;;;;43.70;25.98;;;17.20;61.10;;;;;;5053860;28;20109;-50
2020/12/02 04:43:46;;;;;;;40.45;24.00;;;17.20;61.30;;;;;;5053811;28;20029;-50
2020/12/02 04:46:15;;;;;;;40.65;23.95;;;17.20;61.30;;;;;;5050730;28;20108;-51
2020/12/02 04:48:51;;;;;;;36.78;23.98;;;17.10;61.40;;;;;;5049820;28;20033;-50
2020/12/02 04:51:27;;;;;;;40.58;22.85;;;17.10;61.50;;;;;;5052432;28;20056;-50
2020/12/02 04:53:58;;;;;;;39.83;23.50;;;17.10;61.70;;;;;;5052823;28;20385;-50
2020/12/02 04:56:25;;;;;;;41.55;23.83;;;17.10;61.60;;;;;;5052881;28;20063;-51
2020/12/02 04:58:52;;;;;;;39.97;22.75;;;17.10;61.70;;;;;;5053663;28;20060;-50
2020/12/02 05:01:24;;;;;;;41.28;23.73;;;17.20;61.30;;;;;;5054044;28;20083;-50
2020/12/02 05:04:17;;;;;;;37.03;20.00;;;17.20;61.20;;;;;;5053939;28;20532;-50
2020/12/02 05:06:45;;;;;;;38.63;22.48;;;17.10;61.50;;;;;;5053650;28;20036;-50
2020/12/02 05:09:21;;;;;;;38.42;21.55;;;17.10;61.70;;;;;;5053457;28;20377;-50
2020/12/02 05:12:00;;;;;;;35.78;21.15;;;17.10;61.70;;;;;;5053542;28;20021;-50
2020/12/02 05:14:43;;;;;;;39.13;20.67;;;17.10;61.60;;;;;;5053147;28;20473;-51
2020/12/02 05:17:18;;;;;;;34.67;21.02;;;17.20;61.50;;;;;;5053648;28;20032;-51
2020/12/02 05:20:07;;;;;;;35.08;19.17;;;17.30;61.30;;;;;;5053490;28;20025;-51
2020/12/02 05:22:36;;;;;;;34.13;18.88;;;17.30;61.00;;;;;;5053676;28;20029;-50
2020/12/02 05:25:03;;;;;;;33.80;18.63;;;17.40;60.90;;;;;;5053518;28;20029;-50
2020/12/02 05:27:32;;;;;;;34.90;18.08;;;17.40;60.60;;;;;;5053332;28;20028;-50
2020/12/02 05:30:28;;;;;;;32.28;18.98;;;17.50;60.40;;;;;;5053311;28;20378;-50
2020/12/02 05:33:23;;;;;;;29.35;16.67;;;17.60;60.20;;;;;;5053170;28;20072;-51
2020/12/02 05:35:52;;;;;;;32.30;19.20;;;17.70;59.90;;;;;;5052705;28;20033;-50
2020/12/02 05:38:31;;;;;;;32.88;17.52;;;17.80;59.80;;;;;;5053208;28;20087;-50
2020/12/02 05:40:58;;;;;;;31.02;17.67;;;17.80;59.60;;;;;;5053096;28;20511;-50
2020/12/02 05:43:54;;;;;;;32.38;17.30;;;17.90;59.40;;;;;;5053494;28;20029;-50
2020/12/02 05:46:41;;;;;;;29.50;17.88;;;18.00;59.30;;;;;;5052719;28;20037;-50
2020/12/02 05:49:13;;;;;;;32.08;18.02;;;18.10;59.20;;;;;;5052732;28;20033;-51
2020/12/02 05:51:41;;;;;;;27.23;16.48;;;18.00;59.30;;;;;;5053461;28;20048;-51
2020/12/02 05:54:14;;;;;;;32.45;17.77;;;18.10;59.50;;;;;;5053068;28;20063;-51
2020/12/02 05:56:40;;;;;;;28.55;16.02;;;18.10;59.40;;;;;;5053301;28;20059;-50
2020/12/02 05:59:06;;;;;;;29.25;15.93;;;18.20;59.20;;;;;;5053123;28;20632;-50
2020/12/02 06:01:32;;;;;;;27.23;15.73;;;18.30;59.20;;;;;;5052818;28;20052;-51
2020/12/02 06:03:59;;;;;;;25.67;15.25;;;18.40;58.90;;;;;;5053361;28;20381;-50
2020/12/02 06:06:30;;;;;;;26.52;14.95;;;18.40;58.60;;;;;;5053348;28;20029;-50
2020/12/02 06:08:56;;;;;;;24.38;14.88;;;18.50;58.50;;;;;;5053385;28;20025;-50
2020/12/02 06:11:34;;;;;;;26.60;15.75;;;18.60;58.20;;;;;;5052753;28;20380;-50
2020/12/02 06:14:29;;;;;;;26.35;14.32;;;18.60;58.20;;;;;;5052999;28;20036;-50
2020/12/02 06:16:55;;;;;;;23.48;14.32;;;18.70;57.80;;;;;;5052602;28;20045;-50
2020/12/02 06:19:31;;;;;;;24.77;14.52;;;18.70;57.70;;;;;;5053593;28;20029;-50
2020/12/02 06:21:57;;;;;;;24.42;14.13;;;18.70;57.80;;;;;;5052896;28;20021;-51
2020/12/02 06:24:49;;;;;;;25.75;14.10;;;18.70;57.80;;;;;;5053197;28;20029;-50
2020/12/02 06:27:15;;;;;;;24.40;13.57;;;18.70;57.90;;;;;;5054926;28;20488;-51
2020/12/02 06:29:42;;;;;;;25.05;14.10;;;18.60;58.10;;;;;;5056671;28;20102;-50
2020/12/02 06:32:12;;;;;;;21.67;12.77;;;18.60;58.10;;;;;;5056083;28;20025;-51
2020/12/02 06:34:38;;;;;;;23.92;13.00;;;18.50;58.20;;;;;;5056477;28;20075;-50
2020/12/02 06:37:23;;;;;;;23.77;12.88;;;18.60;58.20;;;;;;5056915;28;20404;-51
2020/12/02 06:39:55;;;;;;;24.70;14.23;;;18.50;58.30;;;;;;5056537;28;20032;-51
2020/12/02 06:42:39;;;;;;;21.05;12.60;;;18.50;58.30;;;;;;5056272;28;20029;-50
2020/12/02 06:45:16;;;;;;;21.42;12.15;;;18.40;58.50;;;;;;5056119;28;20477;-51
2020/12/02 06:48:02;;;;;;;20.13;10.88;;;18.40;58.60;;;;;;5048417;28;20396;-50
2020/12/02 06:50:32;;;;;;;21.25;11.55;;;18.40;58.50;;;;;;5054573;28;20029;-51
2020/12/02 06:53:27;;;;;;;18.88;11.07;;;18.30;58.50;;;;;;5054067;28;20082;-51
2020/12/02 06:55:58;;;;;;;19.52;10.98;;;18.30;58.70;;;;;;5054645;28;20366;-50
2020/12/02 06:58:25;;;;;;;;;;;18.20;58.90;;;;;;5055860;28;20060;-50
2020/12/02 07:00:52;;;;;;;19.33;10.23;;;18.30;58.60;;;;;;5055939;28;20242;-50
2020/12/02 07:03:25;;;;;;;19.00;10.20;;;18.40;58.40;;;;;;5055693;28;20072;-51
2020/12/02 07:06:15;;;;;;;20.58;10.40;;;18.50;58.20;;;;;;5055648;28;20040;-51
2020/12/02 07:08:41;;;;;;;17.20;10.45;;;18.60;58.00;;;;;;5055775;28;20032;-50
2020/12/02 07:11:07;;;;;;;19.85;10.35;;;18.50;58.10;;;;;;5055504;28;20037;-51
2020/12/02 07:13:39;;;;;;;19.13;9.60;;;18.30;58.40;;;;;;5055609;28;20028;-51
2020/12/02 07:16:22;;;;;;;18.33;9.98;;;18.20;58.60;;;;;;5055624;28;20052;-51
2020/12/02 07:18:54;;;;;;;16.90;8.95;;;18.20;58.80;;;;;;5055632;28;20037;-50
2020/12/02 07:21:26;;;;;;;15.63;9.13;;;18.10;58.90;;;;;;5055385;28;20036;-51
2020/12/02 07:23:54;;;;;;;15.98;9.07;;;18.10;58.90;;;;;;5055353;28;20029;-50
2020/12/02 07:26:21;;;;;;;15.95;8.80;;;18.10;58.90;;;;;;5055333;28;20385;-50
2020/12/02 07:28:59;;;;;;;17.15;9.25;;;18.10;58.90;;;;;;5055044;28;20115;-50
2020/12/02 07:31:27;;;;;;;14.27;9.20;;;18.00;59.20;;;;;;5055596;28;20036;-51
2020/12/02 07:34:11;;;;;;;16.73;8.70;;;17.90;58.70;;;;;;5055053;28;20047;-50
2020/12/02 07:36:37;;;;;;;14.50;8.02;;;18.00;59.40;;;;;;5055067;28;20045;-50
2020/12/02 07:39:12;;;;;;;14.82;8.00;;;18.00;59.20;;;;;;5054895;28;20064;-50
2020/12/02 07:41:53;;;;;;;16.30;8.35;;;18.00;59.10;;;;;;5055557;28;20025;-50
2020/12/02 07:44:19;;;;;;;14.93;7.60;;;18.10;58.90;;;;;;5055192;28;20055;-50
2020/12/02 07:46:50;;;;;;;14.20;7.85;;;18.20;58.80;;;;;;5055091;28;20033;-50
2020/12/02 07:49:17;;;;;;;15.32;8.20;;;18.20;58.80;;;;;;5054906;28;20033;-50
2020/12/02 07:51:49;;;;;;;14.80;7.88;;;18.30;58.70;;;;;;5054854;28;20437;-50
2020/12/02 07:54:25;;;;;;;12.25;7.20;;;18.40;58.50;;;;;;5055372;28;20431;-50
2020/12/02 07:56:52;;;;;;;12.73;6.90;;;18.50;58.30;;;;;;5055101;28;20048;-50
2020/12/02 07:59:19;;;;;;;13.93;7.95;;;18.50;58.30;;;;;;5054586;28;20424;-50
2020/12/02 08:02:00;;;;;;;13.50;6.97;;;18.40;58.40;;;;;;5054594;28;20052;-50
2020/12/02 08:04:32;;;;;;;13.30;7.07;;;18.40;58.80;;;;;;5054637;28;20091;-51
2020/12/02 08:07:11;;;;;;;13.88;7.15;;;18.40;58.80;;;;;;5054772;28;20037;-57
2020/12/02 08:09:39;;;;;;;12.48;6.88;;;18.50;58.60;;;;;;5054249;28;20033;-51
2020/12/02 08:12:09;;;;;;;15.52;7.65;;;18.60;58.70;;;;;;5054197;28;20025;-56
2020/12/02 08:14:42;;;;;;;12.60;7.82;;;18.70;57.90;;;;;;5054403;28;20067;-53
2020/12/02 08:17:28;;;;;;;11.75;6.53;;;18.80;58.50;;;;;;5054003;28;20029;-55
2020/12/02 08:19:59;;;;;;;18.95;6.63;;;18.80;57.60;;;;;;5054637;28;20032;-50
2020/12/02 08:22:40;;;;;;;;;;;18.70;58.30;;;;;;5054800;28;20025;-56
2020/12/02 08:25:20;;;;;;;11.30;6.22;;;18.60;58.40;;;;;;5054325;28;19962;-57
2020/12/02 08:27:51;;;;;;;12.27;6.32;;;18.60;58.30;;;;;;5054277;28;20025;-52
2020/12/02 08:30:23;;;;;;;11.30;6.07;;;18.60;58.20;;;;;;5054254;28;20493;-51
2020/12/02 08:33:11;;;;;;;14.38;7.28;;;18.60;58.20;;;;;;5054160;28;20051;-55
2020/12/02 08:35:43;;;;;;;17.30;6.90;;;18.60;58.90;;;;;;5054090;28;20108;-57
2020/12/02 08:38:24;;;;;;;11.65;5.90;;;18.60;58.50;;;;;;5054280;28;20063;-57
2020/12/02 08:40:50;;;;;;;;;;;18.50;58.80;;;;;;5053570;28;20033;-56
2020/12/02 08:43:27;;;;;;;14.75;5.50;;;18.40;58.70;;;;;;5053633;28;20249;-58
2020/12/02 08:46:09;;;;;;;13.55;5.70;;;18.40;58.70;;;;;;5052663;28;20457;-50
2020/12/02 08:48:37;;;;;;;13.88;5.95;;;18.30;58.90;;;;;;5053428;28;20473;-54
2020/12/02 08:51:05;;;;;;;13.60;6.95;;;18.20;58.80;;;;;;5054144;28;20108;-56
2020/12/02 08:53:32;;;;;;;45.70;25.88;;;18.20;58.70;;;;;;5053846;28;20040;-51
2020/12/02 08:55:58;;;;;;;57.53;33.78;;;18.30;58.60;;;;;;5053736;28;20064;-55
2020/12/02 08:58:24;;;;;;;84.40;49.50;;;18.30;58.80;;;;;;5053669;28;20446;-52
2020/12/02 09:00:50;;;;;;;139.18;73.05;;;18.30;58.70;;;;;;5053299;28;20040;-51
2020/12/02 09:03:17;;;;;;;124.55;67.72;;;18.20;58.90;;;;;;5053607;28;20091;-57
2020/12/02 09:05:43;;;;;;;141.07;75.25;;;18.20;58.90;;;;;;5053741;28;20025;-56
2020/12/02 09:08:09;;;;;;;150.82;83.68;;;18.30;58.40;;;;;;5053539;28;20416;-59
2020/12/02 09:10:35;;;;;;;165.57;92.88;;;18.30;57.70;;;;;;5046612;28;20402;-54
2020/12/02 09:13:01;;;;;;;169.05;86.05;;;18.30;57.30;;;;;;5039703;28;20074;-57
2020/12/02 09:15:27;;;;;;;152.85;79.57;;;18.40;57.20;;;;;;5053768;28;20480;-54
2020/12/02 09:17:54;;;;;;;149.05;75.10;;;18.40;57.00;;;;;;5053480;28;20051;-57
2020/12/02 09:20:20;;;;;;;133.55;66.85;;;18.30;56.70;;;;;;5053576;28;20033;-51
2020/12/02 09:22:46;;;;;;;117.30;63.17;;;18.20;56.90;;;;;;5051599;28;20466;-51
2020/12/02 09:25:12;;;;;;;117.00;62.78;;;18.20;57.00;;;;;;5053665;28;20044;-55
2020/12/02 09:27:37;;;;;;;106.85;54.78;;;18.20;56.80;;;;;;5051738;28;20108;-51
2020/12/02 09:30:05;;;;;;;103.75;53.45;;;18.20;56.80;;;;;;5052144;28;20083;-56
2020/12/02 09:32:31;;;;;;;104.47;51.17;;;18.20;56.60;;;;;;5051467;28;20076;-53
2020/12/02 09:34:56;;;;;;;91.22;49.85;;;18.30;56.60;;;;;;5051633;28;20049;-54
2020/12/02 09:37:22;;;;;;;85.70;46.08;;;18.30;56.50;;;;;;5051018;28;20383;-50
2020/12/02 09:39:48;;;;;;;84.57;43.67;;;18.30;56.30;;;;;;5050895;28;20035;-60
2020/12/02 09:42:26;;;;;;;87.05;44.42;;;18.40;56.30;;;;;;5051081;28;20025;-57
2020/12/02 09:45:11;;;;;;;81.32;41.88;;;18.40;56.60;;;;;;5051089;28;20037;-51
2020/12/02 09:47:37;;;;;;;75.82;39.45;;;18.40;56.70;;;;;;5051781;28;20030;-58
2020/12/02 09:50:05;;;;;;;67.80;37.80;;;18.50;56.70;;;;;;5052384;28;20116;-55
2020/12/02 09:52:44;;;;;;;64.18;35.10;;;18.60;56.60;;;;;;5052763;28;20071;-61
2020/12/02 09:55:18;;;;;;;65.30;35.67;;;18.60;56.70;;;;;;5061206;28;20491;-56
2020/12/02 09:57:44;;;;;;;60.42;33.58;;;18.50;56.90;;;;;;5064544;28;20462;-54
2020/12/02 10:00:11;;;;;;;62.33;34.13;;;18.40;57.10;;;;;;5054124;28;20024;-55
2020/12/02 10:02:36;;;;;;;60.60;32.10;;;18.40;57.40;;;;;;5070295;28;20040;-55
2020/12/02 10:05:20;;;;;;;56.58;32.65;;;18.30;57.30;;;;;;5076953;28;20029;-55
2020/12/02 10:07:55;;;;;;;55.80;30.65;;;18.30;57.50;;;;;;5076916;28;20024;-56
2020/12/02 10:10:27;;;;;;;60.35;31.25;;;18.60;57.10;;;;;;5069435;28;20037;-55
2020/12/02 10:13:10;;;;;;;54.90;29.67;;;18.70;56.60;;;;;;5056466;28;20025;-54
2020/12/02 10:15:43;;;;;;;50.60;27.60;;;18.70;56.50;;;;;;5055454;28;20469;-57
2020/12/02 10:18:46;;;;;;;48.42;28.17;;;18.70;56.40;;;;;;5056579;28;20100;-57
2020/12/02 10:21:32;;;;;;;55.47;29.50;;;18.70;56.80;;;;;;5056620;28;20078;-55
2020/12/02 10:24:15;;;;;;;46.45;27.77;;;18.40;57.20;;;;;;5056827;28;20033;-57
2020/12/02 10:27:08;;;;;;;50.92;27.15;;;18.30;57.50;;;;;;5057600;28;20465;-57
2020/12/02 10:30:17;;;;;;;47.70;27.58;;;18.20;57.70;;;;;;5056302;28;20127;-56
2020/12/02 10:32:52;;;;;;;49.40;26.42;;;18.20;58.00;;;;;;5054129;28;20040;-58
2020/12/02 10:35:19;;;;;;;47.65;26.67;;;18.10;58.10;;;;;;5056029;28;20037;-56
2020/12/02 10:37:47;;;;;;;47.55;25.40;;;18.00;58.10;;;;;;5056264;28;20083;-54
2020/12/02 10:40:14;;;;;;;51.80;25.67;;;18.00;58.10;;;;;;5056247;28;20028;-51
2020/12/02 10:43:05;;;;;;;49.75;25.50;;;18.00;58.20;;;;;;5055980;28;20428;-53
2020/12/02 10:45:31;;;;;;;47.47;25.15;;;17.90;58.20;;;;;;5056403;28;20033;-55
2020/12/02 10:48:21;;;;;;;47.70;23.17;;;17.90;58.40;;;;;;5056260;28;20029;-51
2020/12/02 10:50:47;;;;;;;41.27;23.70;;;17.90;58.40;;;;;;5055855;28;20029;-53
2020/12/02 10:53:17;;;;;;;38.03;23.00;;;17.90;58.40;;;;;;5055939;28;20037;-50
2020/12/02 10:55:43;;;;;;;41.35;23.85;;;17.80;58.60;;;;;;5055781;28;20121;-51
2020/12/02 10:58:21;;;;;;;41.65;22.42;;;17.80;58.70;;;;;;5055796;28;20108;-53
2020/12/02 11:00:53;;;;;;;40.50;22.92;;;17.70;58.70;;;;;;5055932;28;20029;-53
2020/12/02 11:03:34;;;;;;;40.97;22.65;;;17.80;58.70;;;;;;5056145;28;20132;-50
2020/12/02 11:06:09;;;;;;;41.42;22.13;;;17.90;58.70;;;;;;5055767;28;20033;-55
2020/12/02 11:08:53;;;;;;;42.25;22.25;;;17.90;58.50;;;;;;5055579;28;20043;-54
2020/12/02 11:11:38;;;;;;;37.50;20.83;;;18.00;58.40;;;;;;5055190;28;20031;-55
2020/12/02 11:14:22;;;;;;;39.72;20.60;;;18.30;57.80;;;;;;5056021;28;20033;-54
2020/12/02 11:17:15;;;;;;;36.30;20.23;;;18.50;57.10;;;;;;5055765;28;20029;-53
2020/12/02 11:19:50;;;;;;;35.22;18.80;;;18.60;56.80;;;;;;5054331;28;20110;-56
2020/12/02 11:22:37;;;;;;;39.10;21.23;;;18.70;56.60;;;;;;5055639;28;20032;-53
2020/12/02 11:25:32;;;;;;;36.72;19.92;;;18.70;56.60;;;;;;5055407;28;20025;-56
2020/12/02 11:27:58;;;;;;;32.30;19.98;;;18.70;56.90;;;;;;5054693;28;20036;-54
2020/12/02 11:30:28;;;;;;;31.38;18.15;;;18.60;57.00;;;;;;5055229;28;20021;-51
2020/12/02 11:33:23;;;;;;;37.05;19.83;;;18.60;57.10;;;;;;5055507;28;20037;-50
2020/12/02 11:36:07;;;;;;;29.77;18.38;;;18.50;57.10;;;;;;5055123;28;20506;-53
2020/12/02 11:38:53;;;;;;;32.63;18.60;;;18.50;57.10;;;;;;5055457;28;20040;-50
2020/12/02 11:41:33;;;;;;;31.30;18.52;;;18.50;57.20;;;;;;5055611;28;20049;-51
2020/12/02 11:44:06;;;;;;;31.38;17.02;;;18.50;57.30;;;;;;5054498;28;20037;-55
2020/12/02 11:46:34;;;;;;;33.78;17.63;;;18.40;57.40;;;;;;5053031;28;20057;-51
2020/12/02 11:49:23;;;;;;;31.42;17.20;;;18.40;57.40;;;;;;5055003;28;20087;-52
2020/12/02 11:52:05;;;;;;;33.15;16.45;;;18.50;57.40;;;;;;5054652;28;20037;-51
2020/12/02 11:54:33;;;;;;;31.17;16.63;;;18.50;57.50;;;;;;5055027;28;20107;-51
2020/12/02 11:56:58;;;;;;;27.35;17.48;;;18.40;57.50;;;;;;5052814;28;20025;-54
2020/12/02 11:59:26;;;;;;;29.30;16.67;;;18.40;57.60;;;;;;5052359;28;20029;-50
2020/12/02 12:01:53;;;;;;;28.33;15.60;;;18.30;57.60;;;;;;5052250;28;20076;-56
2020/12/02 12:04:33;;;;;;;31.00;16.08;;;18.30;57.60;;;;;;5052160;28;20037;-53
2020/12/02 12:07:34;;;;;;;25.58;14.25;;;18.30;57.60;;;;;;5052330;28;20075;-53
2020/12/02 12:10:03;;;;;;;24.40;13.98;;;18.30;57.70;;;;;;5052448;28;20115;-52
2020/12/02 12:12:37;;;;;;;26.77;14.63;;;18.30;57.70;;;;;;5052948;28;20036;-53
2020/12/02 12:15:12;;;;;;;26.48;14.30;;;18.20;58.00;;;;;;5052461;28;20017;-53
2020/12/02 12:17:42;;;;;;;28.80;14.43;;;18.30;58.00;;;;;;5053126;28;20045;-53
2020/12/02 12:20:19;;;;;;;24.05;14.98;;;18.40;57.40;;;;;;5053321;28;20040;-51
2020/12/02 12:22:57;;;;;;;28.30;14.73;;;18.50;57.10;;;;;;5052918;28;20064;-50
2020/12/02 12:25:27;;;;;;;24.55;14.32;;;18.50;57.10;;;;;;5053398;28;20067;-50
2020/12/02 12:28:00;;;;;;;24.23;14.27;;;18.50;57.10;;;;;;5054047;28;20453;-53
2020/12/02 12:30:25;;;;;;;25.42;13.93;;;18.30;57.40;;;;;;5054940;28;20090;-49
2020/12/02 12:33:15;;;;;;;24.60;14.30;;;18.20;57.60;;;;;;5053937;28;20029;-51
2020/12/02 12:35:48;;;;;;;25.48;14.70;;;18.20;57.70;;;;;;5054319;28;20484;-50
2020/12/02 12:38:22;;;;;;;78.80;45.58;;;18.10;58.50;;;;;;5053191;28;20033;-49
2020/12/02 12:41:01;;;;;;;76.90;44.83;;;18.10;59.00;;;;;;5042709;28;20021;-48
2020/12/02 12:43:46;;;;;;;130.68;69.43;;;18.10;59.50;;;;;;5034276;28;20034;-50
2020/12/02 12:46:22;;;;;;;93.95;53.85;;;18.10;60.80;;;;;;5033879;28;20448;-56
2020/12/02 12:48:49;;;;;;;101.35;53.88;;;18.10;61.00;;;;;;5033814;28;20075;-55
2020/12/02 12:51:16;;;;;;;91.22;53.08;;;18.20;61.30;;;;;;5033776;28;20363;-54
2020/12/02 12:53:43;;;;;;;93.35;50.05;;;18.30;61.90;;;;;;5033968;28;20034;-54